createdAt,value
2022-12-03T00:01:28.034Z,98.40
2022-12-03T00:03:58.154Z,101.33
2022-12-03T00:06:34.214Z,96.00
2022-12-03T00:09:04.637Z,98.53
2022-12-03T00:11:34.714Z,98.10
2022-12-03T00:14:07.410Z,94.70
2022-12-03T00:16:37.198Z,88.60
2022-12-03T00:19:07.781Z,96.43
2022-12-03T00:21:37.663Z,95.97
2022-12-03T00:24:08.168Z,92.93
2022-12-03T00:26:38.070Z,87.60
2022-12-03T00:29:11.346Z,81.10
2022-12-03T00:31:42.214Z,85.03
2022-12-03T00:34:12.087Z,83.10
2022-12-03T00:36:41.913Z,85.80
2022-12-03T00:39:11.670Z,83.93
2022-12-03T00:41:41.425Z,77.17
2022-12-03T00:44:13.871Z,86.67
2022-12-03T00:46:43.734Z,77.73
2022-12-03T00:49:13.563Z,83.30
2022-12-03T00:51:43.348Z,84.63
2022-12-03T00:54:13.194Z,86.03
2022-12-03T00:56:42.996Z,89.70
2022-12-03T00:59:15.378Z,93.17
2022-12-03T01:01:45.269Z,92.10
2022-12-03T01:04:15.154Z,83.73
2022-12-03T01:06:45.031Z,85.90
2022-12-03T01:09:15.138Z,87.23
2022-12-03T01:11:44.963Z,83.73
2022-12-03T01:14:19.979Z,82.90
2022-12-03T01:16:51.462Z,92.80
2022-12-03T01:19:21.907Z,79.17
2022-12-03T01:21:53.600Z,94.83
2022-12-03T01:24:23.551Z,77.10
2022-12-03T01:26:53.412Z,84.97
2022-12-03T01:29:25.832Z,85.80
2022-12-03T01:32:08.354Z,81.80
2022-12-03T01:34:38.130Z,79.37
2022-12-03T01:37:07.971Z,72.17
2022-12-03T01:39:37.779Z,81.80
2022-12-03T01:42:08.317Z,78.60
2022-12-03T01:44:47.497Z,86.43
2022-12-03T01:47:20.536Z,92.10
2022-12-03T01:49:53.867Z,83.00
2022-12-03T01:52:27.513Z,92.87
2022-12-03T01:54:59.812Z,80.00
2022-12-03T01:57:33.097Z,81.87
2022-12-03T02:00:05.988Z,80.13
2022-12-03T02:02:36.144Z,84.90
2022-12-03T02:05:17.949Z,81.23
2022-12-03T02:07:47.844Z,73.95
2022-12-03T02:10:21.166Z,93.10
2022-12-03T02:12:55.399Z,80.83
2022-12-03T02:15:28.516Z,83.77
2022-12-03T02:17:58.815Z,77.83
2022-12-03T02:20:29.122Z,74.77
2022-12-03T02:23:03.999Z,80.40
2022-12-03T02:25:38.583Z,73.95
2022-12-03T02:28:10.673Z,71.35
2022-12-03T02:30:40.796Z,75.07
2022-12-03T02:33:10.755Z,70.87
2022-12-03T02:35:41.971Z,72.53
2022-12-03T02:38:16.507Z,72.70
2022-12-03T02:40:52.255Z,71.53
2022-12-03T02:43:21.867Z,77.67
2022-12-03T02:45:54.886Z,70.20
2022-12-03T02:48:28.437Z,73.83
2022-12-03T02:51:00.604Z,73.80
2022-12-03T02:53:33.895Z,79.70
2022-12-03T02:56:08.423Z,79.07
2022-12-03T02:58:38.611Z,81.67
2022-12-03T03:01:08.999Z,78.30
2022-12-03T03:03:40.987Z,73.10
2022-12-03T03:06:12.237Z,77.57
2022-12-03T03:08:44.305Z,85.18
2022-12-03T03:11:16.694Z,78.70
2022-12-03T03:13:46.730Z,71.87
2022-12-03T03:16:16.765Z,77.93
2022-12-03T03:18:46.682Z,84.57
2022-12-03T03:21:16.727Z,74.97
2022-12-03T03:23:46.532Z,80.00
2022-12-03T03:26:19.055Z,70.30
2022-12-03T03:28:53.162Z,79.20
2022-12-03T03:31:26.159Z,70.17
2022-12-03T03:33:56.069Z,87.00
2022-12-03T03:36:26.490Z,74.30
2022-12-03T03:38:56.348Z,83.07
2022-12-03T03:41:29.521Z,82.63
2022-12-03T03:43:59.754Z,86.83
2022-12-03T03:46:33.272Z,102.70
2022-12-03T03:49:03.265Z,87.83
2022-12-03T03:51:33.470Z,90.20
2022-12-03T03:54:05.208Z,88.82
2022-12-03T03:56:38.510Z,79.80
2022-12-03T03:59:08.536Z,90.87
2022-12-03T04:01:39.157Z,88.18
2022-12-03T04:04:16.105Z,96.03
2022-12-03T04:06:45.965Z,102.13
2022-12-03T04:09:15.763Z,94.32
2022-12-03T04:12:00.567Z,93.80
2022-12-03T04:14:30.398Z,93.75
2022-12-03T04:17:00.292Z,86.82
2022-12-03T04:19:30.199Z,98.20
2022-12-03T04:22:13.379Z,90.53
2022-12-03T04:24:43.542Z,86.60
2022-12-03T04:27:28.342Z,82.03
2022-12-03T04:29:58.158Z,89.57
2022-12-03T04:32:40.370Z,92.95
2022-12-03T04:35:24.168Z,89.13
2022-12-03T04:37:54.067Z,96.03
2022-12-03T04:40:36.313Z,102.10
2022-12-03T04:43:08.802Z,94.03
2022-12-03T04:45:38.661Z,93.77
2022-12-03T04:48:09.021Z,95.23
2022-12-03T04:50:38.919Z,88.78
2022-12-03T04:53:08.744Z,83.37
2022-12-03T04:55:38.665Z,85.43
2022-12-03T04:58:12.285Z,82.63
2022-12-03T05:00:42.134Z,72.90
2022-12-03T05:03:12.003Z,75.38
2022-12-03T05:05:41.820Z,74.00
2022-12-03T05:08:11.723Z,72.35
2022-12-03T05:10:41.598Z,75.35
2022-12-03T05:13:14.014Z,73.83
2022-12-03T05:15:44.205Z,76.93
2022-12-03T05:18:14.013Z,74.85
2022-12-03T05:20:52.983Z,74.28
2022-12-03T05:23:23.945Z,73.33
2022-12-03T05:25:53.798Z,80.17
2022-12-03T05:28:26.226Z,73.13
2022-12-03T05:30:56.208Z,68.55
2022-12-03T05:33:26.030Z,68.60
2022-12-03T05:35:55.837Z,76.65
2022-12-03T05:38:25.739Z,77.32
2022-12-03T05:40:55.643Z,75.90
2022-12-03T05:43:25.959Z,74.03
2022-12-03T05:45:56.101Z,80.80
2022-12-03T05:48:25.946Z,78.63
2022-12-03T05:50:55.806Z,62.75
2022-12-03T05:53:25.622Z,67.30
2022-12-03T05:55:55.432Z,70.03
2022-12-03T05:58:27.842Z,64.53
2022-12-03T06:00:57.695Z,60.47
2022-12-03T06:03:27.648Z,60.17
2022-12-03T06:05:57.575Z,55.33
2022-12-03T06:08:29.245Z,62.78
2022-12-03T06:10:59.083Z,54.37
2022-12-03T06:13:31.487Z,58.33
2022-12-03T06:16:01.385Z,58.90
2022-12-03T06:18:31.268Z,55.05
2022-12-03T06:21:01.071Z,54.80
2022-12-03T06:23:30.983Z,57.77
2022-12-03T06:26:00.780Z,50.42
2022-12-03T06:28:33.154Z,53.27
2022-12-03T06:31:02.986Z,56.43
2022-12-03T06:33:32.831Z,55.88
2022-12-03T06:36:02.732Z,54.10
2022-12-03T06:38:32.509Z,56.80
2022-12-03T06:41:02.533Z,52.03
2022-12-03T06:43:34.933Z,56.13
2022-12-03T06:46:04.962Z,60.47
2022-12-03T06:48:34.864Z,57.10
2022-12-03T06:51:04.697Z,71.33
2022-12-03T06:53:34.479Z,73.53
2022-12-03T06:56:04.299Z,77.10
2022-12-03T06:58:36.689Z,72.50
2022-12-03T07:01:06.761Z,71.88
2022-12-03T07:03:36.582Z,72.03
2022-12-03T07:06:06.626Z,75.03
2022-12-03T07:08:36.455Z,66.45
2022-12-03T07:11:26.523Z,73.47
2022-12-03T07:14:04.733Z,82.10
2022-12-03T07:16:36.260Z,78.93
2022-12-03T07:19:06.924Z,76.82
2022-12-03T07:21:37.062Z,79.82
2022-12-03T07:24:07.270Z,84.83
2022-12-03T07:26:37.120Z,85.45
2022-12-03T07:29:11.702Z,88.43
2022-12-03T07:31:44.936Z,87.38
2022-12-03T07:34:14.854Z,99.00
2022-12-03T07:36:45.027Z,94.68
2022-12-03T07:39:16.233Z,93.72
2022-12-03T07:41:48.093Z,91.38
2022-12-03T07:44:20.584Z,92.57
2022-12-03T07:46:52.552Z,95.30
2022-12-03T07:49:22.458Z,89.32
2022-12-03T07:51:57.228Z,97.22
2022-12-03T07:54:32.878Z,91.63
2022-12-03T07:57:02.690Z,95.05
2022-12-03T07:59:35.217Z,92.10
2022-12-03T08:02:05.173Z,91.73
2022-12-03T08:04:35.331Z,97.05
2022-12-03T08:07:05.545Z,106.63
2022-12-03T08:09:35.444Z,102.35
2022-12-03T08:12:15.711Z,91.47
2022-12-03T08:14:49.286Z,96.67
2022-12-03T08:17:21.405Z,94.13
2022-12-03T08:19:52.806Z,90.70
2022-12-03T08:22:22.671Z,107.32
2022-12-03T08:24:52.878Z,106.07
2022-12-03T08:27:23.019Z,107.53
2022-12-03T08:30:08.223Z,93.53
2022-12-03T08:32:38.142Z,97.55
2022-12-03T08:35:14.236Z,103.40
2022-12-03T08:37:44.448Z,106.55
2022-12-03T08:40:24.806Z,112.85
2022-12-03T08:42:54.812Z,108.35
2022-12-03T08:45:43.746Z,104.68
2022-12-03T08:48:27.274Z,109.70
2022-12-03T08:50:59.599Z,112.78
2022-12-03T08:53:38.367Z,103.80
2022-12-03T08:56:22.158Z,108.30
2022-12-03T08:58:55.117Z,109.43
2022-12-03T09:01:35.806Z,110.43
2022-12-03T09:04:22.664Z,105.37
2022-12-03T09:06:53.210Z,105.03
2022-12-03T09:09:23.442Z,101.10
2022-12-03T09:11:54.001Z,110.70
2022-12-03T09:14:26.270Z,100.80
2022-12-03T09:16:59.831Z,93.63
2022-12-03T09:19:32.750Z,103.73
2022-12-03T09:22:02.658Z,104.20
2022-12-03T09:24:35.922Z,107.80
2022-12-03T09:27:05.841Z,112.60
2022-12-03T09:29:35.714Z,101.32
2022-12-03T09:32:09.817Z,107.77
2022-12-03T09:34:42.436Z,95.18
2022-12-03T09:37:12.670Z,95.70
2022-12-03T09:39:42.560Z,102.97
2022-12-03T09:42:12.818Z,96.75
2022-12-03T09:44:43.093Z,102.40
2022-12-03T09:47:15.780Z,97.53
2022-12-03T09:49:46.020Z,106.90
2022-12-03T09:52:23.326Z,107.07
2022-12-03T09:54:56.112Z,103.20
2022-12-03T09:57:26.537Z,94.28
2022-12-03T09:59:56.511Z,101.22
2022-12-03T10:02:34.367Z,103.03
2022-12-03T10:05:04.561Z,94.50
2022-12-03T10:07:35.556Z,105.95
2022-12-03T10:10:05.635Z,114.70
2022-12-03T10:12:35.543Z,105.05
2022-12-03T10:15:05.573Z,102.47
2022-12-03T10:17:38.076Z,98.57
2022-12-03T10:20:11.112Z,96.37
2022-12-03T10:22:41.033Z,90.17
2022-12-03T10:25:13.784Z,100.32
2022-12-03T10:27:45.020Z,98.72
2022-12-03T10:30:19.972Z,99.57
2022-12-03T10:32:53.763Z,109.22
2022-12-03T10:35:26.506Z,97.60
2022-12-03T10:38:00.935Z,102.25
2022-12-03T10:40:32.806Z,104.97
2022-12-03T10:43:23.043Z,110.50
2022-12-03T10:45:56.728Z,109.13
2022-12-03T10:48:32.676Z,107.93
2022-12-03T10:51:07.078Z,105.70
2022-12-03T10:53:39.178Z,104.15
2022-12-03T10:56:14.981Z,102.07
2022-12-03T10:58:46.045Z,103.50
2022-12-03T11:01:19.228Z,112.00
2022-12-03T11:03:53.098Z,110.40
2022-12-03T11:06:25.460Z,116.87
2022-12-03T11:09:01.380Z,119.05
2022-12-03T11:11:34.304Z,110.85
2022-12-03T11:14:08.561Z,109.30
2022-12-03T11:17:11.578Z,110.55
2022-12-03T11:19:52.181Z,109.72
2022-12-03T11:22:43.216Z,102.88
2022-12-03T11:25:57.813Z,107.73
2022-12-03T11:28:56.451Z,95.73
2022-12-03T11:31:42.281Z,106.43
2022-12-03T11:34:50.517Z,104.32
2022-12-03T11:37:28.918Z,103.50
2022-12-03T11:40:20.943Z,105.50
2022-12-03T11:42:51.869Z,98.30
2022-12-03T11:45:33.794Z,97.10
2022-12-03T11:48:08.543Z,98.83
2022-12-03T11:50:40.607Z,95.20
2022-12-03T11:53:23.398Z,94.10
2022-12-03T11:56:06.443Z,91.63
2022-12-03T11:58:38.600Z,88.07
2022-12-03T12:01:10.067Z,92.45
2022-12-03T12:03:46.677Z,102.05
2022-12-03T12:06:20.918Z,88.00
2022-12-03T12:09:04.049Z,99.50
2022-12-03T12:11:36.209Z,91.10
2022-12-03T12:14:10.851Z,88.53
2022-12-03T12:16:50.622Z,97.55
2022-12-03T12:19:41.269Z,100.40
2022-12-03T12:22:33.150Z,108.43
2022-12-03T12:25:24.323Z,100.37
2022-12-03T12:27:55.287Z,88.00
2022-12-03T12:30:27.291Z,96.70
2022-12-03T12:33:10.552Z,93.05
2022-12-03T12:35:40.412Z,88.77
2022-12-03T12:38:20.166Z,99.93
2022-12-03T12:40:57.752Z,96.23
2022-12-03T12:43:29.641Z,95.15
2022-12-03T12:46:24.965Z,95.47
2022-12-03T12:48:59.322Z,107.73
2022-12-03T12:51:29.510Z,90.38
2022-12-03T12:54:00.551Z,93.20
2022-12-03T12:56:34.283Z,92.13
2022-12-03T12:59:14.059Z,92.88
2022-12-03T13:01:46.248Z,97.07
2022-12-03T13:04:19.262Z,95.63
2022-12-03T13:06:50.979Z,100.03
2022-12-03T13:09:24.179Z,92.78
2022-12-03T13:12:00.032Z,93.03
2022-12-03T13:14:34.443Z,88.93
2022-12-03T13:17:13.691Z,96.15
2022-12-03T13:19:49.426Z,97.28
2022-12-03T13:22:34.378Z,93.33
2022-12-03T13:25:50.468Z,90.53
2022-12-03T13:28:16.623Z,88.03
2022-12-03T13:31:24.677Z,84.80
2022-12-03T13:33:57.006Z,93.55
2022-12-03T13:36:42.033Z,82.13
2022-12-03T13:39:18.967Z,88.23
2022-12-03T13:42:01.770Z,86.50
2022-12-03T13:44:40.485Z,83.90
2022-12-03T13:47:16.232Z,80.37
2022-12-03T13:49:50.811Z,88.03
2022-12-03T13:52:23.975Z,87.47
2022-12-03T13:54:55.654Z,83.63
2022-12-03T13:57:25.929Z,87.25
2022-12-03T13:59:58.365Z,84.03
2022-12-03T14:02:28.268Z,82.38
2022-12-03T14:05:00.509Z,81.20
2022-12-03T14:07:34.002Z,80.33
2022-12-03T14:10:03.936Z,81.35
2022-12-03T14:12:36.306Z,78.82
2022-12-03T14:15:10.802Z,79.50
2022-12-03T14:17:40.637Z,80.35
2022-12-03T14:20:11.766Z,90.32
2022-12-03T14:22:44.963Z,87.40
2022-12-03T14:25:18.033Z,87.10
2022-12-03T14:27:48.934Z,81.47
2022-12-03T14:30:24.663Z,86.15
2022-12-03T14:32:55.582Z,75.60
2022-12-03T14:35:29.015Z,83.35
2022-12-03T14:37:59.937Z,80.35
2022-12-03T14:40:32.901Z,88.85
2022-12-03T14:43:08.715Z,90.30
2022-12-03T14:45:41.230Z,82.20
2022-12-03T14:48:14.939Z,82.63
2022-12-03T14:50:47.986Z,75.67
2022-12-03T14:53:26.891Z,82.85
2022-12-03T14:56:01.011Z,78.45
2022-12-03T14:58:30.863Z,90.20
2022-12-03T15:01:04.358Z,85.33
2022-12-03T15:03:34.294Z,82.83
2022-12-03T15:06:09.401Z,76.80
2022-12-03T15:08:39.300Z,83.05
2022-12-03T15:11:10.263Z,88.72
2022-12-03T15:13:42.140Z,99.53
2022-12-03T15:16:14.615Z,218.48
2022-12-03T15:18:44.435Z,202.88
2022-12-03T15:21:16.329Z,191.43
2022-12-03T15:23:46.203Z,140.77
2022-12-03T15:26:19.963Z,107.63
2022-12-03T15:28:49.883Z,96.63
2022-12-03T15:31:22.378Z,80.60
2022-12-03T15:33:55.888Z,93.50
2022-12-03T15:36:26.726Z,85.70
2022-12-03T15:38:57.661Z,84.05
2022-12-03T15:41:29.373Z,88.37
2022-12-03T15:44:01.552Z,84.15
2022-12-03T15:46:36.242Z,82.45
2022-12-03T15:49:06.207Z,77.23
2022-12-03T15:51:39.927Z,91.93
2022-12-03T15:54:11.803Z,85.85
2022-12-03T15:56:47.004Z,84.50
2022-12-03T15:59:16.931Z,92.30
2022-12-03T16:01:52.709Z,86.67
2022-12-03T16:04:22.657Z,88.53
2022-12-03T16:06:53.577Z,92.37
2022-12-03T16:09:27.802Z,91.37
2022-12-03T16:11:58.834Z,90.40
2022-12-03T16:14:31.915Z,88.00
2022-12-03T16:17:05.376Z,85.13
2022-12-03T16:19:37.278Z,87.70
2022-12-03T16:22:10.991Z,93.75
2022-12-03T16:24:40.918Z,96.15
2022-12-03T16:27:10.872Z,91.47
2022-12-03T16:29:41.746Z,87.27
2022-12-03T16:32:14.187Z,87.80
2022-12-03T16:34:46.195Z,92.77
2022-12-03T16:37:15.999Z,95.50
2022-12-03T16:39:50.707Z,96.20
2022-12-03T16:42:20.715Z,90.23
2022-12-03T16:45:02.964Z,90.45
2022-12-03T16:47:38.187Z,98.13
2022-12-03T16:50:20.657Z,95.22
2022-12-03T16:52:55.407Z,96.47
2022-12-03T16:55:25.432Z,93.57
2022-12-03T16:57:55.246Z,97.38
2022-12-03T17:00:26.041Z,92.87
2022-12-03T17:02:59.607Z,91.93
2022-12-03T17:05:29.562Z,91.20
2022-12-03T17:08:03.176Z,95.87
2022-12-03T17:10:33.253Z,95.97
2022-12-03T17:13:10.944Z,105.17
2022-12-03T17:15:42.822Z,90.07
2022-12-03T17:18:15.283Z,93.57
2022-12-03T17:20:45.329Z,95.43
2022-12-03T17:23:17.700Z,92.20
2022-12-03T17:25:47.677Z,90.10
2022-12-03T17:28:17.581Z,103.23
2022-12-03T17:30:47.510Z,97.23
2022-12-03T17:33:23.631Z,104.67
2022-12-03T17:35:54.500Z,94.47
2022-12-03T17:38:24.353Z,103.93
2022-12-03T17:40:54.240Z,96.40
2022-12-03T17:43:24.165Z,92.20
2022-12-03T17:45:54.123Z,99.63
2022-12-03T17:48:26.664Z,99.10
2022-12-03T17:50:58.124Z,106.10
2022-12-03T17:53:30.517Z,101.90
2022-12-03T17:56:00.382Z,102.30
2022-12-03T17:58:30.760Z,99.43
2022-12-03T18:01:03.233Z,99.38
2022-12-03T18:03:40.034Z,97.83
2022-12-03T18:06:10.813Z,107.93
2022-12-03T18:08:43.974Z,108.20
2022-12-03T18:11:19.044Z,110.47
2022-12-03T18:13:50.069Z,113.40
2022-12-03T18:16:23.228Z,107.87
2022-12-03T18:18:58.266Z,111.47
2022-12-03T18:21:30.734Z,104.23
2022-12-03T18:24:02.332Z,97.05
2022-12-03T18:26:33.193Z,97.22
2022-12-03T18:29:03.110Z,99.47
2022-12-03T18:31:34.142Z,100.47
2022-12-03T18:34:12.565Z,91.55
2022-12-03T18:36:42.916Z,90.30
2022-12-03T18:39:26.291Z,94.40
2022-12-03T18:42:00.717Z,91.33
2022-12-03T18:44:36.851Z,94.10
2022-12-03T18:47:14.015Z,85.43
2022-12-03T18:49:49.893Z,136.32
2022-12-03T18:52:22.021Z,140.87
2022-12-03T18:54:52.013Z,104.73
2022-12-03T18:57:22.938Z,94.37
2022-12-03T18:59:56.340Z,85.33
2022-12-03T19:03:00.714Z,81.10
2022-12-03T19:05:23.627Z,85.20
2022-12-03T19:07:55.322Z,90.10
2022-12-03T19:10:28.043Z,94.03
2022-12-03T19:12:57.964Z,79.67
2022-12-03T19:15:28.898Z,86.65
2022-12-03T19:17:58.665Z,94.37
2022-12-03T19:20:31.120Z,86.47
2022-12-03T19:23:00.994Z,87.55
2022-12-03T19:25:33.984Z,88.47
2022-12-03T19:28:04.806Z,92.80
2022-12-03T19:30:35.641Z,90.75
2022-12-03T19:33:05.480Z,89.67
2022-12-03T19:35:44.404Z,84.40
2022-12-03T19:38:18.027Z,94.50
2022-12-03T19:40:47.950Z,94.53
2022-12-03T19:43:17.872Z,93.00
2022-12-03T19:45:47.765Z,82.13
2022-12-03T19:48:17.645Z,86.47
2022-12-03T19:51:13.270Z,80.83
2022-12-03T19:53:45.960Z,87.83
2022-12-03T19:56:18.274Z,85.17
2022-12-03T19:58:49.403Z,98.63
2022-12-03T20:01:21.023Z,90.23
2022-12-03T20:03:52.622Z,83.47
2022-12-03T20:06:27.213Z,92.70
2022-12-03T20:08:58.835Z,93.27
2022-12-03T20:11:30.661Z,101.37
2022-12-03T20:14:03.623Z,101.53
2022-12-03T20:16:33.695Z,102.82
2022-12-03T20:19:06.482Z,98.20
2022-12-03T20:21:40.774Z,92.37
2022-12-03T20:24:12.659Z,95.85
2022-12-03T20:26:43.462Z,98.07
2022-12-03T20:29:13.414Z,90.20
2022-12-03T20:31:43.485Z,89.80
2022-12-03T20:34:14.214Z,95.27
2022-12-03T20:36:46.887Z,96.90
2022-12-03T20:39:16.772Z,93.20
2022-12-03T20:41:46.602Z,96.90
2022-12-03T20:44:16.581Z,100.40
2022-12-03T20:46:46.436Z,97.97
2022-12-03T20:49:16.357Z,89.72
2022-12-03T20:51:48.893Z,91.80
2022-12-03T20:54:18.832Z,94.70
2022-12-03T20:56:52.644Z,87.17
2022-12-03T20:59:22.654Z,89.27
2022-12-03T21:01:53.661Z,87.50
2022-12-03T21:04:23.723Z,93.40
2022-12-03T21:06:59.637Z,96.77
2022-12-03T21:09:29.502Z,92.13
2022-12-03T21:11:59.301Z,94.32
2022-12-03T21:14:29.242Z,91.37
2022-12-03T21:17:08.508Z,91.55
2022-12-03T21:19:39.059Z,95.97
2022-12-03T21:22:14.619Z,96.00
2022-12-03T21:24:45.291Z,94.80
2022-12-03T21:27:21.167Z,102.27
2022-12-03T21:29:51.843Z,103.03
2022-12-03T21:32:21.993Z,102.73
2022-12-03T21:34:51.921Z,91.77
2022-12-03T21:37:24.455Z,94.17
2022-12-03T21:39:54.491Z,96.43
2022-12-03T21:42:35.417Z,92.78
2022-12-03T21:45:08.203Z,91.60
2022-12-03T21:47:38.157Z,91.17
2022-12-03T21:50:11.623Z,97.20
2022-12-03T21:52:44.436Z,97.23
2022-12-03T21:55:14.263Z,87.53
2022-12-03T21:57:45.149Z,99.30
2022-12-03T22:00:16.623Z,95.30
2022-12-03T22:02:46.717Z,85.15
2022-12-03T22:05:16.698Z,85.33
2022-12-03T22:07:49.345Z,89.83
2022-12-03T22:10:19.296Z,82.80
2022-12-03T22:12:49.193Z,94.65
2022-12-03T22:15:19.748Z,91.28
2022-12-03T22:17:50.141Z,90.55
2022-12-03T22:20:21.360Z,92.03
2022-12-03T22:22:53.847Z,88.93
2022-12-03T22:25:23.759Z,87.13
2022-12-03T22:27:53.722Z,95.67
2022-12-03T22:30:23.606Z,83.50
2022-12-03T22:32:54.460Z,89.87
2022-12-03T22:35:24.398Z,93.93
2022-12-03T22:37:56.911Z,84.73
2022-12-03T22:40:26.773Z,102.22
2022-12-03T22:42:57.599Z,89.77
2022-12-03T22:45:27.402Z,90.37
2022-12-03T22:47:57.302Z,88.17
2022-12-03T22:50:27.211Z,87.85
2022-12-03T22:52:59.780Z,89.70
2022-12-03T22:55:30.633Z,87.47
2022-12-03T22:58:00.452Z,96.90
2022-12-03T23:00:32.829Z,87.13
2022-12-03T23:03:02.782Z,94.67
2022-12-03T23:05:38.544Z,92.37
2022-12-03T23:08:15.318Z,96.13
2022-12-03T23:10:47.647Z,93.10
2022-12-03T23:13:17.993Z,94.00
2022-12-03T23:15:49.663Z,88.53
2022-12-03T23:18:20.163Z,96.33
2022-12-03T23:20:51.646Z,85.83
2022-12-03T23:23:28.632Z,88.97
2022-12-03T23:26:02.346Z,89.60
2022-12-03T23:28:34.297Z,94.77
2022-12-03T23:31:04.319Z,93.77
2022-12-03T23:33:38.434Z,91.50
2022-12-03T23:36:09.300Z,92.50
2022-12-03T23:38:41.981Z,99.80
2022-12-03T23:41:14.152Z,90.90
2022-12-03T23:43:45.594Z,92.50
2022-12-03T23:46:17.873Z,91.43
2022-12-03T23:48:51.283Z,103.50
2022-12-03T23:51:23.865Z,86.28
2022-12-03T23:53:57.744Z,97.63
2022-12-03T23:56:30.362Z,96.83
2022-12-03T23:59:01.742Z,99.25
